Main page
METAR-TAF:

METAR-TAF

Airports :

Chièvres Air Base

Chièvres, Belgium

latitude: 50-34N, longitude: 003-50E, elevation: 60 m

Current weather observation

The report was made 44 minutes ago, at 06:55 UTC
Wind 3 kt from the West/Southwest
Temperature 15°C
Humidity 77%
Pressure 1024 hPa
Visibility 10 km or more

METAR: EBCV 110655Z AUTO 25003KT 9999 NCD 15/11 Q1024 BLU

Time: 09:39 (07:39 UTC)

Forecast

The report was made 1 hour and 58 minutes ago, at 05:41 UTC
Forecast valid from 11 at 07 UTC to 11 at 16 UTC
Wind 3 kt from variable directions
Visibility 10 km or more
Few clouds at a height of 3000 ft
Temporary
from 11 at 09 UTC to 11 at 16 UTC
Wind 7 kt from the Northwest
Visibility: 9000 m
Scattered clouds at a height of 2200 ft
Broken clouds at a height of 3000 ft
light rain showers

TAF: EBCV 110541Z 1107/1116 VRB03KT 9999 FEW030 TEMPO 1109/1116 31007KT 9000 -SHRA SCT022 BKN030 BY EBWM

Weather observations and forecasts of more than 4000 airports (METAR and TAF reports).

The available stations are represented by yellow and red dots on the map.

Hover mouse over dot to see the name of the station.

Then click to see weather observations and forecasts.

To change the map : click on the green buttons with a black cross to zoom in, on the green button with a dash to zoom out, or on the green arrows for adjacent maps.


METAR-TAF: